createdAt,value
2023-03-27T00:00:02.209Z,0.00
2023-03-27T00:01:02.187Z,0.00
2023-03-27T00:02:02.431Z,0.00
2023-03-27T00:03:02.217Z,0.00
2023-03-27T00:04:02.210Z,0.00
2023-03-27T00:05:02.160Z,0.00
2023-03-27T00:06:02.148Z,0.00
2023-03-27T00:07:02.131Z,0.00
2023-03-27T00:08:02.104Z,0.00
2023-03-27T00:09:02.293Z,0.00
2023-03-27T00:10:02.078Z,0.00
2023-03-27T00:11:02.106Z,0.00
2023-03-27T00:12:02.057Z,0.00
2023-03-27T00:13:02.048Z,0.00
2023-03-27T00:14:02.042Z,0.00
2023-03-27T00:15:02.042Z,0.00
2023-03-27T00:16:01.998Z,0.00
2023-03-27T00:17:02.040Z,0.00
2023-03-27T00:18:02.030Z,0.00
2023-03-27T00:19:01.967Z,0.00
2023-03-27T00:20:01.974Z,0.00
2023-03-27T00:21:01.966Z,0.00
2023-03-27T00:22:01.963Z,0.00
2023-03-27T00:23:01.909Z,0.00
2023-03-27T00:24:01.897Z,0.00
2023-03-27T00:25:01.905Z,0.00
2023-03-27T00:26:01.887Z,0.00
2023-03-27T00:27:02.067Z,0.00
2023-03-27T00:28:02.053Z,0.00
2023-03-27T00:29:01.882Z,0.00
2023-03-27T00:30:01.865Z,0.00
2023-03-27T00:31:01.854Z,0.00
2023-03-27T00:32:01.794Z,0.00
2023-03-27T00:33:01.812Z,0.00
2023-03-27T00:34:01.788Z,0.00
2023-03-27T00:35:01.783Z,0.00
2023-03-27T00:36:01.761Z,0.00
2023-03-27T00:37:01.776Z,0.00
2023-03-27T00:38:01.724Z,0.00
2023-03-27T00:39:01.712Z,0.00
2023-03-27T00:41:01.756Z,0.00
2023-03-27T00:42:01.665Z,0.00
2023-03-27T00:43:01.658Z,0.00
2023-03-27T00:44:01.632Z,0.00
2023-03-27T00:45:01.624Z,0.00
2023-03-27T00:46:01.728Z,0.00
2023-03-27T00:47:01.600Z,0.00
2023-03-27T00:48:01.665Z,0.00
2023-03-27T00:49:01.629Z,0.00
2023-03-27T00:50:01.569Z,0.00
2023-03-27T00:51:01.546Z,0.00
2023-03-27T00:52:01.742Z,0.00
2023-03-27T00:53:01.547Z,0.00
2023-03-27T00:54:01.511Z,0.00
2023-03-27T00:55:01.698Z,0.00
2023-03-27T00:56:01.498Z,0.00
2023-03-27T00:57:01.532Z,0.00
2023-03-27T00:58:01.467Z,0.00
2023-03-27T00:59:01.448Z,0.00
2023-03-27T01:00:01.447Z,0.00
2023-03-27T01:01:01.426Z,0.00
2023-03-27T01:02:01.431Z,0.00
2023-03-27T01:03:01.455Z,0.00
2023-03-27T01:04:01.387Z,0.00
2023-03-27T01:05:01.390Z,0.00
2023-03-27T01:06:01.367Z,0.00
2023-03-27T01:07:01.547Z,0.00
2023-03-27T01:08:01.906Z,0.00
2023-03-27T01:09:01.339Z,0.00
2023-03-27T01:10:01.306Z,0.00
2023-03-27T01:11:01.281Z,0.00
2023-03-27T01:12:01.286Z,0.00
2023-03-27T01:13:01.262Z,0.00
2023-03-27T01:14:01.257Z,0.00
2023-03-27T01:15:01.244Z,0.00
2023-03-27T01:16:01.254Z,0.00
2023-03-27T01:17:01.217Z,0.00
2023-03-27T01:18:01.278Z,0.00
2023-03-27T01:19:01.191Z,0.00
2023-03-27T01:20:01.210Z,0.00
2023-03-27T01:21:01.188Z,0.00
2023-03-27T01:22:01.157Z,0.00
2023-03-27T01:23:01.136Z,0.00
2023-03-27T01:24:01.111Z,0.00
2023-03-27T01:25:01.187Z,0.00
2023-03-27T01:26:01.111Z,0.00
2023-03-27T01:27:01.081Z,0.00
2023-03-27T01:28:01.107Z,0.00
2023-03-27T01:29:01.055Z,0.00
2023-03-27T01:30:01.046Z,0.00
2023-03-27T01:31:01.047Z,0.00
2023-03-27T01:32:01.019Z,0.00
2023-03-27T01:33:01.095Z,0.00
2023-03-27T01:34:00.985Z,0.00
2023-03-27T01:35:02.109Z,0.00
2023-03-27T01:36:01.040Z,0.00
2023-03-27T01:37:01.167Z,0.00
2023-03-27T01:38:00.941Z,0.00
2023-03-27T01:39:00.931Z,0.00
2023-03-27T01:40:00.923Z,0.00
2023-03-27T01:41:00.925Z,0.00
2023-03-27T01:42:00.914Z,0.00
2023-03-27T01:43:01.078Z,0.00
2023-03-27T01:44:00.868Z,0.00
2023-03-27T01:45:00.858Z,0.00
2023-03-27T01:46:00.853Z,0.00
2023-03-27T01:47:00.905Z,0.00
2023-03-27T01:48:00.829Z,0.00
2023-03-27T01:49:00.832Z,0.00
2023-03-27T01:50:00.819Z,0.00
2023-03-27T01:51:00.774Z,0.00
2023-03-27T01:52:00.766Z,0.00
2023-03-27T01:53:00.740Z,0.00
2023-03-27T01:54:00.746Z,0.00
2023-03-27T01:55:00.716Z,0.00
2023-03-27T01:56:00.700Z,0.00
2023-03-27T01:57:00.846Z,0.00
2023-03-27T01:58:00.700Z,0.00
2023-03-27T01:59:00.665Z,0.00
2023-03-27T02:00:18.759Z,0.00
2023-03-27T02:02:00.623Z,0.00
2023-03-27T02:03:00.637Z,0.00
2023-03-27T02:04:00.608Z,0.00
2023-03-27T02:05:00.616Z,0.00
2023-03-27T02:06:00.589Z,0.00
2023-03-27T02:07:00.561Z,0.00
2023-03-27T02:08:00.533Z,0.00
2023-03-27T02:09:00.532Z,0.00
2023-03-27T02:10:00.513Z,0.00
2023-03-27T02:11:00.504Z,0.00
2023-03-27T02:12:00.491Z,0.00
2023-03-27T02:13:00.518Z,0.00
2023-03-27T02:14:00.459Z,0.00
2023-03-27T02:15:23.779Z,0.00
2023-03-27T02:16:00.464Z,0.00
2023-03-27T02:17:00.421Z,0.00
2023-03-27T02:18:00.503Z,0.00
2023-03-27T02:19:00.389Z,0.00
2023-03-27T02:20:00.437Z,0.00
2023-03-27T02:21:00.367Z,0.00
2023-03-27T02:22:00.355Z,0.00
2023-03-27T02:23:00.355Z,0.00
2023-03-27T02:24:00.320Z,0.00
2023-03-27T02:25:00.321Z,0.00
2023-03-27T02:26:00.299Z,0.00
2023-03-27T02:27:00.494Z,0.00
2023-03-27T02:28:00.291Z,0.00
2023-03-27T02:29:00.312Z,0.00
2023-03-27T02:30:00.275Z,0.00
2023-03-27T02:31:30.593Z,0.00
2023-03-27T02:32:00.299Z,0.00
2023-03-27T02:33:00.239Z,0.00
2023-03-27T02:34:00.207Z,0.00
2023-03-27T02:35:00.217Z,0.00
2023-03-27T02:36:00.226Z,0.00
2023-03-27T02:37:00.154Z,0.00
2023-03-27T02:38:00.342Z,0.00
2023-03-27T02:39:00.147Z,0.00
2023-03-27T02:40:00.228Z,0.00
2023-03-27T02:41:00.105Z,0.00
2023-03-27T02:42:00.148Z,0.00
2023-03-27T02:43:00.115Z,0.00
2023-03-27T02:44:00.076Z,0.00
2023-03-27T02:45:00.090Z,0.00
2023-03-27T02:46:00.129Z,0.00
2023-03-27T02:47:00.042Z,0.00
2023-03-27T02:48:00.033Z,0.00
2023-03-27T02:48:59.998Z,0.00
2023-03-27T02:49:59.992Z,0.00
2023-03-27T02:50:59.957Z,0.00
2023-03-27T02:51:59.963Z,0.00
2023-03-27T02:52:59.943Z,0.00
2023-03-27T02:54:59.912Z,0.00
2023-03-27T02:55:59.902Z,0.00
2023-03-27T02:57:00.020Z,0.00
2023-03-27T02:57:59.918Z,0.00
2023-03-27T02:58:59.882Z,0.00
2023-03-27T02:59:59.843Z,0.00
2023-03-27T03:01:00.105Z,0.00
2023-03-27T03:01:59.857Z,0.00
2023-03-27T03:02:59.944Z,0.00
2023-03-27T03:03:59.803Z,0.00
2023-03-27T03:04:59.817Z,0.00
2023-03-27T03:05:59.851Z,0.00
2023-03-27T03:06:59.757Z,0.00
2023-03-27T03:07:59.797Z,0.00
2023-03-27T03:08:59.735Z,0.00
2023-03-27T03:09:59.739Z,0.00
2023-03-27T03:10:59.706Z,0.00
2023-03-27T03:11:59.710Z,0.00
2023-03-27T03:12:59.737Z,0.00
2023-03-27T03:13:59.729Z,0.00
2023-03-27T03:14:59.678Z,0.00
2023-03-27T03:15:59.643Z,0.00
2023-03-27T03:16:59.722Z,0.00
2023-03-27T03:17:59.658Z,0.00
2023-03-27T03:18:59.802Z,0.00
2023-03-27T03:19:59.597Z,0.00
2023-03-27T03:20:59.583Z,0.00
2023-03-27T03:21:59.768Z,0.00
2023-03-27T03:22:59.548Z,0.00
2023-03-27T03:23:59.525Z,0.00
2023-03-27T03:24:59.711Z,0.00
2023-03-27T03:25:59.512Z,0.00
2023-03-27T03:26:59.486Z,0.00
2023-03-27T03:27:59.500Z,0.00
2023-03-27T03:29:01.000Z,0.00
2023-03-27T03:29:59.638Z,0.00
2023-03-27T03:30:59.841Z,0.00
2023-03-27T03:31:59.458Z,0.00
2023-03-27T03:32:59.512Z,0.00
2023-03-27T03:33:59.427Z,0.00
2023-03-27T03:34:59.401Z,0.00
2023-03-27T03:35:59.394Z,0.00
2023-03-27T03:36:59.382Z,0.00
2023-03-27T03:37:59.371Z,0.00
2023-03-27T03:38:59.327Z,0.00
2023-03-27T03:39:59.349Z,0.00
2023-03-27T03:40:59.618Z,0.00
2023-03-27T03:41:59.279Z,0.00
2023-03-27T03:42:59.274Z,0.00
2023-03-27T03:43:59.267Z,0.00
2023-03-27T03:44:59.246Z,0.00
2023-03-27T03:45:59.277Z,0.00
2023-03-27T03:46:59.220Z,0.00
2023-03-27T03:47:59.234Z,0.00
2023-03-27T03:48:59.574Z,0.00
2023-03-27T03:49:59.189Z,0.00
2023-03-27T03:50:59.418Z,0.00
2023-03-27T03:52:03.883Z,0.00
2023-03-27T03:52:59.149Z,0.00
2023-03-27T03:53:59.128Z,0.00
2023-03-27T03:54:59.133Z,0.00
2023-03-27T03:55:59.097Z,0.00
2023-03-27T03:56:59.184Z,0.00
2023-03-27T03:57:59.099Z,0.00
2023-03-27T03:58:59.126Z,0.00
2023-03-27T03:59:59.077Z,0.00
2023-03-27T04:00:59.086Z,0.00
2023-03-27T04:01:59.089Z,0.00
2023-03-27T04:02:59.070Z,0.00
2023-03-27T04:03:59.095Z,0.00
2023-03-27T04:05:59.021Z,0.00
2023-03-27T04:06:58.958Z,0.00
2023-03-27T04:07:58.945Z,0.00
2023-03-27T04:08:58.916Z,0.00
2023-03-27T04:09:58.920Z,0.00
2023-03-27T04:10:59.007Z,0.00
2023-03-27T04:11:58.881Z,0.00
2023-03-27T04:12:58.858Z,0.00
2023-03-27T04:13:58.853Z,0.00
2023-03-27T04:14:58.852Z,0.00
2023-03-27T04:15:58.834Z,0.00
2023-03-27T04:16:58.820Z,0.00
2023-03-27T04:17:58.866Z,0.00
2023-03-27T04:18:58.773Z,0.00
2023-03-27T04:19:58.769Z,0.00
2023-03-27T04:20:58.937Z,0.00
2023-03-27T04:21:58.844Z,0.00
2023-03-27T04:22:58.770Z,0.00
2023-03-27T04:23:58.737Z,0.00
2023-03-27T04:24:58.701Z,0.00
2023-03-27T04:25:58.722Z,0.00
2023-03-27T04:26:58.680Z,0.00
2023-03-27T04:27:58.669Z,0.00
2023-03-27T04:28:58.662Z,0.00
2023-03-27T04:29:58.668Z,0.00
2023-03-27T04:30:58.963Z,0.00
2023-03-27T04:31:58.603Z,0.00
2023-03-27T04:32:58.874Z,0.00
2023-03-27T04:33:58.589Z,0.00
2023-03-27T04:34:58.562Z,0.00
2023-03-27T04:36:06.852Z,0.00
2023-03-27T04:36:58.583Z,0.00
2023-03-27T04:37:58.538Z,0.00
2023-03-27T04:38:58.511Z,0.00
2023-03-27T04:39:58.551Z,4.00
2023-03-27T04:40:58.650Z,0.00
2023-03-27T04:41:58.486Z,0.00
2023-03-27T04:42:58.464Z,0.00
2023-03-27T04:43:58.449Z,4.00
2023-03-27T04:44:58.487Z,4.00
2023-03-27T04:45:58.428Z,0.00
2023-03-27T04:46:58.437Z,4.00
2023-03-27T04:47:58.430Z,8.00
2023-03-27T04:48:58.393Z,8.00
2023-03-27T04:49:58.387Z,8.00
2023-03-27T04:50:58.634Z,12.00
2023-03-27T04:51:58.338Z,12.00
2023-03-27T04:52:58.351Z,16.00
2023-03-27T04:53:58.339Z,20.00
2023-03-27T04:54:58.293Z,24.00
2023-03-27T04:55:58.285Z,32.00
2023-03-27T04:56:58.294Z,36.00
2023-03-27T04:57:58.275Z,44.00
2023-03-27T04:58:58.251Z,44.00
2023-03-27T04:59:58.256Z,44.00
2023-03-27T05:00:58.607Z,40.00
2023-03-27T05:01:58.253Z,36.00
2023-03-27T05:02:58.320Z,36.00
2023-03-27T05:03:58.239Z,36.00
2023-03-27T05:04:58.160Z,40.00
2023-03-27T05:05:58.144Z,48.00
2023-03-27T05:06:58.197Z,52.00
2023-03-27T05:07:58.106Z,60.00
2023-03-27T05:08:58.094Z,68.00
2023-03-27T05:09:58.123Z,92.00
2023-03-27T05:10:58.403Z,136.00
2023-03-27T05:11:58.083Z,176.00
2023-03-27T05:12:58.550Z,188.00
2023-03-27T05:13:58.256Z,220.00
2023-03-27T05:14:58.017Z,268.00
2023-03-27T05:15:58.033Z,304.00
2023-03-27T05:16:57.984Z,328.00
2023-03-27T05:17:58.028Z,356.00
2023-03-27T05:18:57.960Z,384.00
2023-03-27T05:19:58.047Z,416.00
2023-03-27T05:20:58.105Z,444.00
2023-03-27T05:21:57.972Z,472.00
2023-03-27T05:22:57.909Z,496.00
2023-03-27T05:23:57.901Z,512.00
2023-03-27T05:24:57.900Z,508.00
2023-03-27T05:25:59.417Z,532.00
2023-03-27T05:26:57.851Z,560.00
2023-03-27T05:27:57.833Z,580.00
2023-03-27T05:28:57.823Z,604.00
2023-03-27T05:29:57.853Z,632.00
2023-03-27T05:30:58.020Z,680.00
2023-03-27T05:31:59.008Z,704.00
2023-03-27T05:32:57.766Z,704.00
2023-03-27T05:33:57.763Z,720.00
2023-03-27T05:34:57.755Z,732.00
2023-03-27T05:35:58.604Z,728.00
2023-03-27T05:36:57.747Z,776.00
2023-03-27T05:37:57.713Z,848.00
2023-03-27T05:38:57.671Z,912.00
2023-03-27T05:39:57.684Z,1024.00
2023-03-27T05:40:57.840Z,1124.00
2023-03-27T05:41:57.669Z,1876.00
2023-03-27T05:42:57.834Z,1404.00
2023-03-27T05:43:57.631Z,1376.00
2023-03-27T05:44:57.598Z,1636.00
2023-03-27T05:45:57.638Z,1792.00
2023-03-27T05:46:57.586Z,1572.00
2023-03-27T05:47:57.591Z,1640.00
2023-03-27T05:48:57.531Z,1788.00
2023-03-27T05:49:57.533Z,2256.00
2023-03-27T05:50:57.733Z,2116.00
2023-03-27T05:51:57.484Z,2496.00
2023-03-27T05:52:57.490Z,2672.00
2023-03-27T05:53:57.495Z,2780.00
2023-03-27T05:54:57.446Z,3044.00
2023-03-27T05:56:03.119Z,3328.00
2023-03-27T05:56:57.511Z,3500.00
2023-03-27T05:57:57.425Z,3644.00
2023-03-27T05:58:57.405Z,3656.00
2023-03-27T05:59:57.380Z,3596.00
2023-03-27T06:00:57.614Z,3556.00
2023-03-27T06:01:57.355Z,3200.00
2023-03-27T06:02:57.506Z,3044.00
2023-03-27T06:03:57.381Z,2824.00
2023-03-27T06:04:57.318Z,2904.00
2023-03-27T06:05:57.306Z,3324.00
2023-03-27T06:06:57.283Z,3852.00
2023-03-27T06:07:57.268Z,4052.00
2023-03-27T06:08:57.268Z,4248.00
2023-03-27T06:09:57.241Z,4336.00
2023-03-27T06:10:57.412Z,4300.00
2023-03-27T06:11:57.232Z,4316.00
2023-03-27T06:12:57.213Z,4284.00
2023-03-27T06:13:58.479Z,4380.00
2023-03-27T06:14:57.207Z,4532.00
2023-03-27T06:15:57.416Z,4620.00
2023-03-27T06:16:57.153Z,4740.00
2023-03-27T06:17:57.190Z,4684.00
2023-03-27T06:18:57.136Z,4692.00
2023-03-27T06:19:57.126Z,4616.00
2023-03-27T06:20:57.237Z,4624.00
2023-03-27T06:21:57.105Z,4776.00
2023-03-27T06:22:57.082Z,4884.00
2023-03-27T06:23:57.062Z,4872.00
2023-03-27T06:24:57.083Z,4888.00
2023-03-27T06:25:57.225Z,4916.00
2023-03-27T06:26:57.076Z,4948.00
2023-03-27T06:27:57.034Z,4984.00
2023-03-27T06:28:56.991Z,5060.00
2023-03-27T06:29:57.011Z,5132.00
2023-03-27T06:30:57.012Z,5184.00
2023-03-27T06:31:56.994Z,5252.00
2023-03-27T06:32:57.027Z,5300.00
2023-03-27T06:33:56.945Z,5296.00
2023-03-27T06:34:56.932Z,5248.00
2023-03-27T06:35:57.105Z,5276.00
2023-03-27T06:36:56.909Z,5320.00
2023-03-27T06:37:57.100Z,5416.00
2023-03-27T06:38:56.874Z,5512.00
2023-03-27T06:39:56.897Z,5532.00
2023-03-27T06:40:57.081Z,5536.00
2023-03-27T06:41:56.858Z,5200.00
2023-03-27T06:42:56.861Z,5236.00
2023-03-27T06:43:56.854Z,5208.00
2023-03-27T06:44:56.818Z,5232.00
2023-03-27T06:45:57.046Z,5504.00
2023-03-27T06:46:56.832Z,5712.00
2023-03-27T06:48:13.447Z,5604.00
2023-03-27T06:48:56.813Z,5804.00
2023-03-27T06:49:56.750Z,5992.00
2023-03-27T06:50:56.946Z,6100.00
2023-03-27T06:51:56.749Z,6188.00
2023-03-27T06:52:56.742Z,6204.00
2023-03-27T06:53:56.726Z,6248.00
2023-03-27T06:54:56.706Z,6324.00
2023-03-27T06:55:57.036Z,6356.00
2023-03-27T06:56:56.736Z,6580.00
2023-03-27T06:57:56.703Z,7232.00
2023-03-27T06:58:56.651Z,8084.00
2023-03-27T06:59:56.639Z,9388.00
2023-03-27T07:00:56.842Z,8016.00
2023-03-27T07:01:56.741Z,7296.00
2023-03-27T07:02:56.678Z,7316.00
2023-03-27T07:03:56.652Z,7396.00
2023-03-27T07:05:04.316Z,8140.00
2023-03-27T07:05:56.834Z,8604.00
2023-03-27T07:06:56.612Z,7796.00
2023-03-27T07:07:57.512Z,7436.00
2023-03-27T07:08:56.532Z,6796.00
2023-03-27T07:09:56.533Z,6456.00
2023-03-27T07:11:10.812Z,6768.00
2023-03-27T07:11:56.512Z,6516.00
2023-03-27T07:12:56.511Z,7700.00
2023-03-27T07:13:56.469Z,11412.00
2023-03-27T07:14:56.467Z,12176.00
2023-03-27T07:15:56.475Z,20960.00
2023-03-27T07:16:56.442Z,41024.00
2023-03-27T07:17:56.486Z,66112.00
2023-03-27T07:18:56.411Z,49504.00
2023-03-27T07:19:56.409Z,85728.00
2023-03-27T07:20:56.620Z,85280.00
2023-03-27T07:21:56.388Z,46720.00
2023-03-27T07:22:56.550Z,28384.00
2023-03-27T07:23:56.423Z,67648.00
2023-03-27T07:24:56.389Z,81696.00
2023-03-27T07:25:56.510Z,85792.00
2023-03-27T07:26:56.367Z,85920.00
2023-03-27T07:27:56.339Z,81696.00
2023-03-27T07:28:56.327Z,77440.00
2023-03-27T07:29:56.330Z,80768.00
2023-03-27T07:30:56.601Z,86784.00
2023-03-27T07:31:59.559Z,82560.00
2023-03-27T07:32:56.380Z,76992.00
2023-03-27T07:33:56.383Z,84064.00
2023-03-27T07:34:56.303Z,89856.00
2023-03-27T07:35:56.753Z,86432.00
2023-03-27T07:36:56.280Z,82272.00
2023-03-27T07:37:56.299Z,86496.00
2023-03-27T07:38:56.258Z,90400.00
2023-03-27T07:39:56.287Z,86048.00
2023-03-27T07:40:56.290Z,80320.00
2023-03-27T07:41:56.256Z,82912.00
2023-03-27T07:42:56.284Z,86944.00
2023-03-27T07:43:56.247Z,83840.00
2023-03-27T07:44:56.230Z,82976.00
2023-03-27T07:45:56.564Z,87552.00
2023-03-27T07:46:56.223Z,35104.00
2023-03-27T07:47:56.260Z,15976.00
2023-03-27T07:48:56.217Z,33568.00
2023-03-27T07:49:56.244Z,17664.00
2023-03-27T07:51:00.665Z,14056.00
2023-03-27T07:51:56.204Z,24832.00
2023-03-27T07:52:56.226Z,28256.00
2023-03-27T07:53:56.244Z,10336.00
2023-03-27T07:54:56.191Z,13588.00
2023-03-27T07:55:56.396Z,9444.00
2023-03-27T07:56:56.280Z,8108.00
2023-03-27T07:58:01.352Z,9796.00
2023-03-27T07:58:56.370Z,9092.00
2023-03-27T07:59:56.160Z,7488.00
2023-03-27T08:00:56.151Z,6672.00
2023-03-27T08:01:56.149Z,8992.00
2023-03-27T08:02:56.378Z,9744.00
2023-03-27T08:03:56.247Z,18880.00
2023-03-27T08:04:56.263Z,9136.00
2023-03-27T08:05:56.343Z,33888.00
2023-03-27T08:06:56.151Z,82848.00
2023-03-27T08:07:56.160Z,82336.00
2023-03-27T08:08:56.091Z,82592.00
2023-03-27T08:09:56.108Z,38784.00
2023-03-27T08:10:56.084Z,81152.00
2023-03-27T08:11:56.132Z,13980.00
2023-03-27T08:12:56.058Z,7416.00
2023-03-27T08:13:56.054Z,7320.00
2023-03-27T08:14:56.043Z,22496.00
2023-03-27T08:15:56.219Z,88256.00
2023-03-27T08:17:05.149Z,74176.00
2023-03-27T08:17:56.072Z,7888.00
2023-03-27T08:18:56.012Z,95136.00
2023-03-27T08:19:56.015Z,82112.00
2023-03-27T08:20:55.993Z,77952.00
2023-03-27T08:21:56.019Z,92320.00
2023-03-27T08:22:56.012Z,101184.00
2023-03-27T08:23:57.386Z,99808.00
2023-03-27T08:24:55.987Z,83936.00
2023-03-27T08:25:56.093Z,70912.00
2023-03-27T08:26:56.034Z,13516.00
2023-03-27T08:27:55.951Z,81728.00
2023-03-27T08:28:55.979Z,87200.00
2023-03-27T08:29:55.916Z,80768.00
2023-03-27T08:30:56.017Z,10912.00
2023-03-27T08:31:55.928Z,16672.00
2023-03-27T08:32:55.993Z,16416.00
2023-03-27T08:33:55.929Z,5840.00
2023-03-27T08:34:55.903Z,3764.00
2023-03-27T08:35:56.104Z,6548.00
2023-03-27T08:36:55.894Z,4544.00
2023-03-27T08:37:55.960Z,4752.00
2023-03-27T08:38:55.878Z,57184.00
2023-03-27T08:39:55.851Z,77440.00
2023-03-27T08:40:56.273Z,77088.00
2023-03-27T08:41:55.851Z,10144.00
2023-03-27T08:42:55.849Z,5032.00
2023-03-27T08:43:55.835Z,8788.00
2023-03-27T08:44:55.828Z,77408.00
2023-03-27T08:45:56.077Z,77600.00
2023-03-27T08:46:56.022Z,27904.00
2023-03-27T08:47:55.817Z,28672.00
2023-03-27T08:48:55.838Z,73600.00
2023-03-27T08:49:55.799Z,8264.00
2023-03-27T08:50:55.793Z,70528.00
2023-03-27T08:51:55.774Z,52064.00
2023-03-27T08:52:55.764Z,6360.00
2023-03-27T08:53:55.781Z,49568.00
2023-03-27T08:54:55.738Z,69376.00
2023-03-27T08:55:56.094Z,72960.00
2023-03-27T08:56:55.837Z,20640.00
2023-03-27T08:57:55.734Z,9400.00
2023-03-27T08:58:55.714Z,6316.00
2023-03-27T08:59:55.703Z,5320.00
2023-03-27T09:00:55.686Z,4928.00
2023-03-27T09:01:55.699Z,4896.00
2023-03-27T09:02:55.802Z,10908.00
2023-03-27T09:03:55.830Z,5232.00
2023-03-27T09:04:55.656Z,70848.00
2023-03-27T09:05:55.908Z,74624.00
2023-03-27T09:06:55.647Z,69408.00
2023-03-27T09:07:55.656Z,63040.00
2023-03-27T09:08:55.626Z,63328.00
2023-03-27T09:09:55.702Z,46816.00
2023-03-27T09:10:55.621Z,48768.00
2023-03-27T09:11:55.592Z,62240.00
2023-03-27T09:12:55.602Z,71808.00
2023-03-27T09:13:55.581Z,68512.00
2023-03-27T09:14:55.576Z,68512.00
2023-03-27T09:15:55.878Z,69312.00
2023-03-27T09:16:55.564Z,69248.00
2023-03-27T09:17:55.631Z,19040.00
2023-03-27T09:18:55.538Z,68640.00
2023-03-27T09:19:55.540Z,45504.00
2023-03-27T09:20:55.527Z,11476.00
2023-03-27T09:21:55.754Z,7928.00
2023-03-27T09:22:55.501Z,11456.00
2023-03-27T09:23:55.488Z,9460.00
2023-03-27T09:24:55.489Z,9908.00
2023-03-27T09:25:55.706Z,8632.00
2023-03-27T09:27:06.288Z,7768.00
2023-03-27T09:27:55.455Z,10128.00
2023-03-27T09:28:55.454Z,8356.00
2023-03-27T09:30:05.910Z,7868.00
2023-03-27T09:30:55.451Z,5908.00
2023-03-27T09:31:55.419Z,4772.00
2023-03-27T09:32:55.502Z,4556.00
2023-03-27T09:33:55.438Z,4360.00
2023-03-27T09:34:55.400Z,4364.00
2023-03-27T09:35:55.684Z,3684.00
2023-03-27T09:36:55.377Z,2976.00
2023-03-27T09:37:55.365Z,2452.00
2023-03-27T09:38:55.378Z,2168.00
2023-03-27T09:39:55.355Z,2044.00
2023-03-27T09:40:55.334Z,2000.00
2023-03-27T09:41:55.390Z,1996.00
2023-03-27T09:42:55.337Z,1956.00
2023-03-27T09:43:55.364Z,1892.00
2023-03-27T09:44:55.313Z,1868.00
2023-03-27T09:45:55.498Z,2008.00
2023-03-27T09:46:55.343Z,1976.00
2023-03-27T09:47:55.334Z,1984.00
2023-03-27T09:48:55.290Z,2160.00
2023-03-27T09:49:55.265Z,2148.00
2023-03-27T09:50:55.401Z,2116.00
2023-03-27T09:51:55.248Z,2312.00
2023-03-27T09:52:55.238Z,2608.00
2023-03-27T09:53:55.256Z,2276.00
2023-03-27T09:54:55.194Z,2036.00
2023-03-27T09:55:55.194Z,2028.00
2023-03-27T09:56:55.237Z,2048.00
2023-03-27T09:57:55.202Z,2296.00
2023-03-27T09:58:55.187Z,2404.00
2023-03-27T09:59:55.180Z,2732.00
2023-03-27T10:00:55.593Z,3560.00
2023-03-27T10:01:55.164Z,5968.00
2023-03-27T10:02:55.244Z,6756.00
2023-03-27T10:03:55.135Z,6620.00
2023-03-27T10:04:55.102Z,6620.00
2023-03-27T10:05:55.111Z,6644.00
2023-03-27T10:06:55.077Z,6680.00
2023-03-27T10:07:55.274Z,6760.00
2023-03-27T10:08:55.066Z,6832.00
2023-03-27T10:09:55.034Z,6184.00
2023-03-27T10:10:55.223Z,6072.00
2023-03-27T10:11:55.006Z,4896.00
2023-03-27T10:12:54.994Z,4812.00
2023-03-27T10:13:55.019Z,4516.00
2023-03-27T10:14:55.007Z,4380.00
2023-03-27T10:15:54.999Z,4376.00
2023-03-27T10:16:54.995Z,5420.00
2023-03-27T10:17:55.012Z,5908.00
2023-03-27T10:18:55.005Z,6372.00
2023-03-27T10:19:54.934Z,6484.00
2023-03-27T10:20:55.211Z,5736.00
2023-03-27T10:21:54.933Z,4816.00
2023-03-27T10:22:55.006Z,4200.00
2023-03-27T10:23:54.890Z,3628.00
2023-03-27T10:24:54.888Z,3148.00
2023-03-27T10:25:54.884Z,2904.00
2023-03-27T10:26:55.290Z,2732.00
2023-03-27T10:27:54.891Z,2540.00
2023-03-27T10:28:54.856Z,2492.00
2023-03-27T10:29:55.071Z,2616.00
2023-03-27T10:30:54.933Z,2932.00
2023-03-27T10:31:54.829Z,3408.00
2023-03-27T10:32:54.816Z,3740.00
2023-03-27T10:33:54.782Z,3832.00
2023-03-27T10:34:54.814Z,3804.00
2023-03-27T10:35:54.795Z,3744.00
2023-03-27T10:36:54.748Z,3744.00
2023-03-27T10:37:54.763Z,3776.00
2023-03-27T10:38:54.718Z,4532.00
2023-03-27T10:39:54.752Z,4648.00
2023-03-27T10:40:54.847Z,5188.00
2023-03-27T10:41:54.710Z,5548.00
2023-03-27T10:42:54.687Z,7012.00
2023-03-27T10:43:54.678Z,5528.00
2023-03-27T10:44:54.674Z,5068.00
2023-03-27T10:45:54.720Z,4624.00
2023-03-27T10:46:54.673Z,4104.00
2023-03-27T10:47:54.702Z,3380.00
2023-03-27T10:48:54.615Z,2284.00
2023-03-27T10:49:54.608Z,2180.00
2023-03-27T10:50:54.724Z,2204.00
2023-03-27T10:51:54.587Z,2244.00
2023-03-27T10:52:54.639Z,2316.00
2023-03-27T10:53:54.642Z,2480.00
2023-03-27T10:54:54.571Z,3016.00
2023-03-27T10:55:54.601Z,5336.00
2023-03-27T10:56:54.594Z,6448.00
2023-03-27T10:57:54.552Z,6504.00
2023-03-27T10:58:54.489Z,6264.00
2023-03-27T10:59:54.510Z,6112.00
2023-03-27T11:00:54.481Z,6152.00
2023-03-27T11:01:54.545Z,6636.00
2023-03-27T11:02:54.488Z,6964.00
2023-03-27T11:03:54.583Z,6884.00
2023-03-27T11:04:54.436Z,6876.00
2023-03-27T11:05:54.476Z,6932.00
2023-03-27T11:06:54.417Z,6884.00
2023-03-27T11:07:54.428Z,6596.00
2023-03-27T11:08:54.391Z,6344.00
2023-03-27T11:09:54.386Z,6116.00
2023-03-27T11:10:54.434Z,3880.00
2023-03-27T11:11:54.366Z,3608.00
2023-03-27T11:12:54.350Z,3512.00
2023-03-27T11:13:54.335Z,3508.00
2023-03-27T11:14:54.369Z,5444.00
2023-03-27T11:15:54.316Z,5576.00
2023-03-27T11:16:54.314Z,5880.00
2023-03-27T11:17:54.392Z,6180.00
2023-03-27T11:18:54.278Z,4796.00
2023-03-27T11:19:54.274Z,6376.00
2023-03-27T11:20:54.269Z,6620.00
2023-03-27T11:21:54.260Z,6512.00
2023-03-27T11:22:54.236Z,6212.00
2023-03-27T11:23:54.264Z,6116.00
2023-03-27T11:24:54.220Z,6276.00
2023-03-27T11:25:54.201Z,6124.00
2023-03-27T11:26:54.201Z,4584.00
2023-03-27T11:27:54.184Z,4076.00
2023-03-27T11:28:54.186Z,5684.00
2023-03-27T11:29:54.215Z,6004.00
2023-03-27T11:30:54.331Z,5840.00
2023-03-27T11:31:54.261Z,5736.00
2023-03-27T11:32:54.284Z,4724.00
2023-03-27T11:33:54.153Z,4692.00
2023-03-27T11:34:54.121Z,5796.00
2023-03-27T11:35:54.133Z,5692.00
2023-03-27T11:36:54.111Z,4160.00
2023-03-27T11:37:54.089Z,3956.00
2023-03-27T11:38:54.063Z,3624.00
2023-03-27T11:39:54.073Z,3528.00
2023-03-27T11:40:54.168Z,3392.00
2023-03-27T11:41:54.064Z,2964.00
2023-03-27T11:42:54.038Z,2832.00
2023-03-27T11:43:54.018Z,2876.00
2023-03-27T11:44:54.022Z,3032.00
2023-03-27T11:45:54.073Z,3212.00
2023-03-27T11:46:54.193Z,3164.00
2023-03-27T11:47:54.050Z,3220.00
2023-03-27T11:48:53.958Z,3132.00
2023-03-27T11:49:53.996Z,2908.00
2023-03-27T11:50:54.017Z,2496.00
2023-03-27T11:51:53.936Z,2228.00
2023-03-27T11:52:53.929Z,2008.00
2023-03-27T11:53:53.945Z,1960.00
2023-03-27T11:54:53.909Z,2052.00
2023-03-27T11:55:53.894Z,1936.00
2023-03-27T11:56:53.946Z,2088.00
2023-03-27T11:57:53.864Z,2364.00
2023-03-27T11:58:53.871Z,2800.00
2023-03-27T11:59:53.862Z,3760.00
2023-03-27T12:00:54.152Z,4828.00
2023-03-27T12:01:53.873Z,5028.00
2023-03-27T12:02:53.855Z,5156.00
2023-03-27T12:03:54.072Z,4908.00
2023-03-27T12:04:53.793Z,4328.00
2023-03-27T12:05:53.803Z,3068.00
2023-03-27T12:06:53.781Z,2712.00
2023-03-27T12:07:53.753Z,2568.00
2023-03-27T12:08:53.980Z,2340.00
2023-03-27T12:09:53.746Z,1972.00
2023-03-27T12:10:53.720Z,1376.00
2023-03-27T12:11:53.704Z,1044.00
2023-03-27T12:12:53.707Z,1308.00
2023-03-27T12:14:01.056Z,1496.00
2023-03-27T12:14:53.685Z,1576.00
2023-03-27T12:15:53.676Z,1760.00
2023-03-27T12:16:53.711Z,2068.00
2023-03-27T12:17:53.656Z,2464.00
2023-03-27T12:19:03.786Z,4756.00
2023-03-27T12:19:53.619Z,4768.00
2023-03-27T12:20:53.968Z,4868.00
2023-03-27T12:21:53.629Z,4996.00
2023-03-27T12:22:53.581Z,4968.00
2023-03-27T12:23:53.587Z,4864.00
2023-03-27T12:24:59.769Z,2992.00
2023-03-27T12:25:53.558Z,2936.00
2023-03-27T12:26:53.542Z,4644.00
2023-03-27T12:27:53.554Z,4816.00
2023-03-27T12:28:53.528Z,4928.00
2023-03-27T12:29:53.503Z,5052.00
2023-03-27T12:30:53.697Z,3448.00
2023-03-27T12:31:53.758Z,4796.00
2023-03-27T12:32:55.385Z,4912.00
2023-03-27T12:33:53.480Z,4780.00